createdAt,value
2023-05-24T00:00:22.379Z,88.25
2023-05-24T00:02:49.253Z,88.32
2023-05-24T00:05:16.812Z,90.00
2023-05-24T00:07:43.669Z,91.32
2023-05-24T00:10:11.057Z,91.44
2023-05-24T00:12:37.754Z,90.29
2023-05-24T00:15:04.812Z,90.56
2023-05-24T00:17:31.500Z,90.95
2023-05-24T00:19:58.214Z,90.66
2023-05-24T00:22:25.192Z,89.45
2023-05-24T00:24:52.074Z,91.60
2023-05-24T00:27:18.788Z,92.68
2023-05-24T00:29:45.585Z,91.33
2023-05-24T00:32:12.290Z,92.57
2023-05-24T00:34:39.003Z,92.57
2023-05-24T00:37:05.701Z,93.90
2023-05-24T00:39:32.339Z,94.52
2023-05-24T00:41:58.970Z,93.03
2023-05-24T00:44:26.423Z,93.10
2023-05-24T00:46:53.074Z,93.91
2023-05-24T00:49:19.931Z,94.33
2023-05-24T00:51:46.805Z,94.75
2023-05-24T00:54:15.173Z,95.24
2023-05-24T00:56:42.969Z,94.41
2023-05-24T00:59:09.727Z,95.71
2023-05-24T01:01:37.365Z,97.16
2023-05-24T01:04:04.247Z,96.50
2023-05-24T01:06:33.149Z,97.91
2023-05-24T01:09:10.358Z,99.46
2023-05-24T01:12:12.359Z,97.33
2023-05-24T01:14:59.846Z,97.30
2023-05-24T01:17:49.240Z,99.75
2023-05-24T01:20:17.772Z,99.82
2023-05-24T01:23:05.221Z,100.00
2023-05-24T01:25:48.807Z,100.00
2023-05-24T01:28:17.938Z,100.00
2023-05-24T01:30:44.981Z,100.00
2023-05-24T01:33:11.896Z,100.00
2023-05-24T01:35:41.342Z,100.00
2023-05-24T01:38:08.706Z,100.00
2023-05-24T01:40:35.954Z,100.00
2023-05-24T01:43:18.883Z,100.00
2023-05-24T01:46:10.164Z,100.00
2023-05-24T01:48:54.293Z,100.00
2023-05-24T01:51:23.997Z,100.00
2023-05-24T01:53:51.394Z,100.00
2023-05-24T01:56:20.380Z,100.00
2023-05-24T01:58:47.638Z,100.00
2023-05-24T02:01:14.672Z,100.00
2023-05-24T02:03:41.527Z,100.00
2023-05-24T02:06:08.391Z,100.00
2023-05-24T02:08:35.074Z,100.00
2023-05-24T02:11:02.700Z,100.00
2023-05-24T02:13:29.494Z,100.00
2023-05-24T02:15:56.310Z,100.00
2023-05-24T02:18:22.978Z,100.00
2023-05-24T02:20:49.722Z,100.00
2023-05-24T02:23:16.474Z,100.00
2023-05-24T02:25:43.191Z,100.00
2023-05-24T02:28:09.858Z,100.00
2023-05-24T02:30:36.613Z,100.00
2023-05-24T02:33:03.453Z,100.00
2023-05-24T02:35:30.349Z,100.00
2023-05-24T02:37:58.659Z,100.00
2023-05-24T02:40:26.209Z,100.00
2023-05-24T02:42:52.882Z,100.00
2023-05-24T02:45:19.493Z,100.00
2023-05-24T02:47:46.937Z,100.00
2023-05-24T02:50:13.645Z,100.00
2023-05-24T02:52:40.432Z,100.00
2023-05-24T02:55:07.408Z,100.00
2023-05-24T02:57:34.353Z,100.00
2023-05-24T03:00:01.019Z,100.00
2023-05-24T03:02:29.382Z,100.00
2023-05-24T03:04:56.228Z,100.00
2023-05-24T03:07:22.913Z,100.00
2023-05-24T03:09:49.574Z,100.00
2023-05-24T03:12:16.240Z,100.00
2023-05-24T03:14:42.908Z,100.00
2023-05-24T03:17:09.577Z,100.00
2023-05-24T03:19:37.429Z,100.00
2023-05-24T03:22:04.141Z,100.00
2023-05-24T03:24:31.757Z,100.00
2023-05-24T03:26:58.471Z,100.00
2023-05-24T03:29:25.120Z,100.00
2023-05-24T03:31:51.835Z,100.00
2023-05-24T03:34:18.541Z,100.00
2023-05-24T03:36:45.246Z,100.00
2023-05-24T03:39:11.889Z,100.00
2023-05-24T03:41:38.522Z,100.00
2023-05-24T03:44:05.501Z,100.00
2023-05-24T03:46:32.340Z,100.00
2023-05-24T03:48:59.078Z,100.00
2023-05-24T03:51:29.516Z,100.00
2023-05-24T03:53:57.341Z,100.00
2023-05-24T03:56:24.643Z,100.00
2023-05-24T03:58:52.401Z,100.00
2023-05-24T04:01:33.325Z,100.00
2023-05-24T04:04:02.300Z,100.00
2023-05-24T04:06:30.053Z,100.00
2023-05-24T04:08:57.855Z,100.00
2023-05-24T04:11:28.232Z,100.00
2023-05-24T04:13:55.999Z,100.00
2023-05-24T04:16:27.542Z,100.00
2023-05-24T04:18:57.628Z,100.00
2023-05-24T04:21:24.428Z,100.00
2023-05-24T04:23:51.205Z,100.00
2023-05-24T04:26:18.387Z,100.00
2023-05-24T04:28:46.770Z,100.00
2023-05-24T04:31:13.900Z,100.00
2023-05-24T04:33:40.993Z,100.00
2023-05-24T04:36:08.390Z,100.00
2023-05-24T04:38:36.186Z,100.00
2023-05-24T04:41:03.157Z,100.00
2023-05-24T04:43:29.895Z,100.00
2023-05-24T04:45:56.615Z,95.72
2023-05-24T04:48:24.511Z,98.11
2023-05-24T04:50:55.992Z,97.83
2023-05-24T04:53:23.256Z,99.45
2023-05-24T04:55:50.550Z,100.00
2023-05-24T04:58:17.446Z,100.00
2023-05-24T05:00:44.767Z,99.00
2023-05-24T05:03:11.755Z,99.21
2023-05-24T05:05:38.664Z,94.14
2023-05-24T05:08:06.963Z,96.27
2023-05-24T05:10:33.636Z,94.84
2023-05-24T05:13:00.297Z,97.39
2023-05-24T05:15:26.983Z,94.33
2023-05-24T05:17:53.682Z,90.47
2023-05-24T05:20:20.618Z,94.75
2023-05-24T05:22:48.114Z,94.50
2023-05-24T05:25:14.751Z,90.76
2023-05-24T05:27:41.623Z,91.63
2023-05-24T05:30:08.785Z,91.08
2023-05-24T05:32:37.764Z,87.07
2023-05-24T05:35:05.199Z,87.56
2023-05-24T05:37:31.974Z,88.23
2023-05-24T05:39:58.649Z,79.90
2023-05-24T05:42:25.630Z,74.79
2023-05-24T05:44:52.788Z,73.79
2023-05-24T05:47:19.536Z,74.47
2023-05-24T05:49:46.222Z,74.27
2023-05-24T05:52:12.938Z,76.11
2023-05-24T05:54:39.646Z,72.41
2023-05-24T05:57:08.257Z,72.68
2023-05-24T05:59:36.279Z,66.56
2023-05-24T06:02:04.116Z,63.95
2023-05-24T06:04:30.906Z,65.38
2023-05-24T06:06:57.595Z,65.02
2023-05-24T06:09:24.250Z,62.79
2023-05-24T06:11:50.924Z,62.56
2023-05-24T06:16:46.171Z,61.68
2023-05-24T06:19:13.631Z,59.06
2023-05-24T06:21:47.128Z,61.77
2023-05-24T06:24:15.176Z,60.96
2023-05-24T06:26:42.166Z,58.64
2023-05-24T06:29:09.815Z,57.77
2023-05-24T06:31:36.588Z,57.01
2023-05-24T06:34:04.669Z,57.25
2023-05-24T06:36:35.983Z,56.25
2023-05-24T06:39:03.993Z,58.33
2023-05-24T06:41:30.792Z,58.13
2023-05-24T06:43:57.659Z,57.87
2023-05-24T06:46:24.387Z,59.40
2023-05-24T06:48:51.240Z,55.09
2023-05-24T06:51:17.968Z,53.36
2023-05-24T06:53:44.632Z,55.68
2023-05-24T06:56:11.358Z,56.42
2023-05-24T06:58:38.017Z,56.65
2023-05-24T07:01:05.191Z,53.40
2023-05-24T07:03:32.496Z,53.51
2023-05-24T07:05:59.241Z,51.37
2023-05-24T07:08:25.902Z,54.22
2023-05-24T07:10:54.063Z,53.41
2023-05-24T07:13:20.946Z,56.53
2023-05-24T07:15:47.750Z,57.74
2023-05-24T07:18:14.565Z,58.52
2023-05-24T07:20:41.708Z,58.43
2023-05-24T07:23:09.202Z,59.90
2023-05-24T07:25:35.882Z,60.27
2023-05-24T07:28:02.603Z,63.21
2023-05-24T07:30:32.794Z,64.04
2023-05-24T07:33:00.108Z,63.16
2023-05-24T07:35:28.668Z,63.39
2023-05-24T07:37:55.607Z,63.88
2023-05-24T07:40:23.309Z,64.00
2023-05-24T07:42:50.290Z,66.55
2023-05-24T07:45:17.002Z,67.35
2023-05-24T07:47:43.788Z,67.91
2023-05-24T07:50:11.674Z,67.71
2023-05-24T07:52:38.852Z,68.43
2023-05-24T07:55:06.444Z,67.39
2023-05-24T07:57:33.651Z,69.38
2023-05-24T08:00:07.111Z,69.36
2023-05-24T08:02:34.970Z,69.85
2023-05-24T08:05:05.093Z,70.89
2023-05-24T08:07:31.779Z,68.41
2023-05-24T08:09:58.459Z,68.64
2023-05-24T08:12:26.151Z,68.86
2023-05-24T08:14:52.945Z,69.98
2023-05-24T08:17:19.629Z,69.80
2023-05-24T08:19:46.300Z,70.59
2023-05-24T08:22:13.106Z,66.92
2023-05-24T08:24:39.779Z,68.38
2023-05-24T08:27:07.437Z,67.38
2023-05-24T08:29:34.832Z,68.69
2023-05-24T08:32:01.531Z,67.73
2023-05-24T08:34:28.592Z,66.87
2023-05-24T08:36:55.268Z,62.64
2023-05-24T08:39:21.936Z,64.69
2023-05-24T08:42:00.985Z,63.84
2023-05-24T08:44:41.890Z,63.07
2023-05-24T08:47:11.848Z,64.32
2023-05-24T08:49:38.828Z,60.09
2023-05-24T08:52:07.653Z,60.02
2023-05-24T08:54:37.759Z,62.18
2023-05-24T08:57:04.606Z,62.63
2023-05-24T08:59:31.458Z,63.62
2023-05-24T09:02:00.146Z,62.34
2023-05-24T09:04:27.929Z,61.36
2023-05-24T09:06:55.479Z,59.55
2023-05-24T09:09:22.392Z,58.60
2023-05-24T09:11:50.483Z,56.58
2023-05-24T09:14:17.167Z,57.82
2023-05-24T09:16:44.617Z,55.72
2023-05-24T09:19:11.892Z,56.09
2023-05-24T09:21:38.577Z,57.49
2023-05-24T09:24:08.526Z,57.29
2023-05-24T09:26:36.696Z,58.24
2023-05-24T09:29:07.360Z,55.64
2023-05-24T09:31:35.173Z,56.60
2023-05-24T09:34:02.195Z,58.69
2023-05-24T09:36:33.171Z,57.62
2023-05-24T09:39:07.929Z,58.11
2023-05-24T09:41:34.586Z,59.48
2023-05-24T09:44:01.948Z,60.85
2023-05-24T09:46:29.862Z,60.65
2023-05-24T09:49:00.258Z,60.25
2023-05-24T09:51:27.205Z,62.05
2023-05-24T09:53:57.226Z,60.53
2023-05-24T09:56:24.853Z,60.95
2023-05-24T09:58:51.734Z,61.96
2023-05-24T10:01:19.184Z,62.70
2023-05-24T10:03:57.152Z,65.06
2023-05-24T10:06:24.088Z,65.00
2023-05-24T10:08:51.977Z,65.90
2023-05-24T10:11:19.035Z,64.72
2023-05-24T10:13:45.821Z,63.40
2023-05-24T10:16:12.935Z,63.00
2023-05-24T10:18:39.871Z,64.26
2023-05-24T10:21:08.549Z,62.39
2023-05-24T10:23:43.566Z,61.93
2023-05-24T10:26:14.201Z,60.38
2023-05-24T10:28:48.825Z,63.91
2023-05-24T10:31:18.544Z,64.00
2023-05-24T10:33:48.400Z,60.43
2023-05-24T10:36:16.213Z,63.16
2023-05-24T10:38:43.661Z,61.78
2023-05-24T10:41:13.050Z,63.82
2023-05-24T10:43:40.579Z,62.93
2023-05-24T10:46:09.196Z,61.99
2023-05-24T10:48:40.777Z,62.58
2023-05-24T10:51:39.529Z,61.03
2023-05-24T10:54:13.790Z,61.23
2023-05-24T10:56:48.762Z,60.38
2023-05-24T10:59:37.512Z,59.31
2023-05-24T11:02:16.553Z,58.00
2023-05-24T11:04:46.926Z,61.98
2023-05-24T11:07:15.263Z,61.18
2023-05-24T11:09:46.524Z,58.64
2023-05-24T11:12:17.880Z,60.17
2023-05-24T11:14:52.414Z,60.94
2023-05-24T11:17:21.456Z,63.12
2023-05-24T11:19:51.090Z,62.89
2023-05-24T11:22:18.087Z,61.27
2023-05-24T11:24:45.118Z,63.43
2023-05-24T11:27:13.109Z,60.07
2023-05-24T11:29:44.977Z,59.98
2023-05-24T11:32:17.062Z,62.56
2023-05-24T11:34:46.412Z,62.68
2023-05-24T11:37:15.287Z,61.96
2023-05-24T11:39:44.608Z,59.52
2023-05-24T11:42:11.546Z,61.94
2023-05-24T11:44:38.637Z,63.00
2023-05-24T11:47:07.731Z,61.68
2023-05-24T11:49:34.781Z,59.90
2023-05-24T11:52:01.799Z,57.69
2023-05-24T11:54:29.407Z,59.22
2023-05-24T11:56:56.278Z,55.89
2023-05-24T11:59:25.585Z,59.14
2023-05-24T12:01:58.946Z,58.72
2023-05-24T12:04:26.145Z,57.28
2023-05-24T12:06:52.897Z,56.83
2023-05-24T12:09:19.597Z,55.48
2023-05-24T12:11:50.686Z,56.41
2023-05-24T12:14:23.532Z,56.24
2023-05-24T12:16:50.171Z,56.23
2023-05-24T12:19:32.474Z,57.73
2023-05-24T12:22:00.607Z,58.33
2023-05-24T12:24:27.786Z,59.91
2023-05-24T12:26:58.685Z,61.39
2023-05-24T12:29:25.352Z,62.26
2023-05-24T12:31:52.834Z,62.71
2023-05-24T12:34:20.458Z,62.46
2023-05-24T12:36:47.771Z,62.59
2023-05-24T12:39:31.013Z,62.52
2023-05-24T12:41:58.834Z,63.34
2023-05-24T12:44:27.057Z,63.11
2023-05-24T12:46:54.727Z,62.01
2023-05-24T12:49:22.421Z,61.70
2023-05-24T12:51:49.693Z,60.32
2023-05-24T12:54:18.937Z,61.53
2023-05-24T12:56:45.930Z,62.01
2023-05-24T12:59:12.709Z,59.93
2023-05-24T13:01:39.535Z,57.96
2023-05-24T13:04:06.367Z,57.27
2023-05-24T13:06:33.139Z,57.14
2023-05-24T13:08:59.842Z,57.91
2023-05-24T13:11:27.635Z,60.03
2023-05-24T13:13:54.431Z,57.77
2023-05-24T13:16:21.596Z,59.34
2023-05-24T13:18:48.659Z,59.47
2023-05-24T13:21:15.351Z,56.44
2023-05-24T13:23:43.835Z,57.38
2023-05-24T13:26:11.104Z,57.72
2023-05-24T13:28:40.486Z,58.50
2023-05-24T13:31:12.496Z,55.01
2023-05-24T13:33:40.336Z,55.83
2023-05-24T13:36:08.371Z,57.42
2023-05-24T13:38:35.086Z,57.89
2023-05-24T13:41:01.822Z,57.08
2023-05-24T13:43:28.493Z,56.62
2023-05-24T13:45:55.724Z,54.41
2023-05-24T13:48:22.647Z,55.34
2023-05-24T13:50:50.182Z,53.23
2023-05-24T13:53:16.884Z,55.31
2023-05-24T13:55:43.864Z,56.24
2023-05-24T13:58:10.638Z,54.70
2023-05-24T14:00:37.861Z,55.20
2023-05-24T14:03:06.016Z,55.73
2023-05-24T14:05:33.191Z,57.59
2023-05-24T14:08:06.213Z,56.58
2023-05-24T14:10:37.086Z,58.24
2023-05-24T14:15:37.900Z,57.58
2023-05-24T14:18:08.436Z,56.48
2023-05-24T14:20:40.034Z,56.84
2023-05-24T14:23:07.802Z,58.79
2023-05-24T14:25:34.551Z,57.53
2023-05-24T14:28:01.545Z,57.02
2023-05-24T14:30:28.216Z,57.43
2023-05-24T14:32:54.996Z,57.37
2023-05-24T14:35:21.777Z,58.11
2023-05-24T14:37:48.527Z,58.13
2023-05-24T14:40:17.657Z,56.16
2023-05-24T14:42:45.884Z,58.68
2023-05-24T14:45:12.988Z,58.13
2023-05-24T14:47:39.709Z,58.72
2023-05-24T14:50:07.064Z,55.39
2023-05-24T14:52:33.957Z,53.04
2023-05-24T14:55:00.817Z,56.68
2023-05-24T14:57:27.611Z,54.48
2023-05-24T14:59:54.289Z,51.65
2023-05-24T15:02:21.060Z,49.43
2023-05-24T15:04:47.743Z,51.92
2023-05-24T15:07:14.527Z,54.37
2023-05-24T15:09:41.218Z,52.46
2023-05-24T15:12:08.622Z,54.00
2023-05-24T15:14:35.337Z,51.89
2023-05-24T15:17:02.223Z,53.60
2023-05-24T15:19:28.913Z,53.14
2023-05-24T15:21:55.669Z,53.66
2023-05-24T15:24:22.328Z,52.92
2023-05-24T15:26:49.212Z,51.37
2023-05-24T15:29:17.250Z,51.45
2023-05-24T15:31:44.238Z,50.36
2023-05-24T15:34:11.087Z,50.02
2023-05-24T15:36:38.612Z,49.78
2023-05-24T15:39:08.166Z,49.51
2023-05-24T15:41:35.616Z,50.21
2023-05-24T15:44:08.595Z,50.92
2023-05-24T15:46:36.584Z,53.91
2023-05-24T15:49:05.256Z,52.82
2023-05-24T15:52:02.620Z,53.66
2023-05-24T15:54:18.717Z,53.68
2023-05-24T15:56:45.417Z,53.64
2023-05-24T15:59:12.126Z,54.69
2023-05-24T16:01:38.909Z,56.48
2023-05-24T16:04:05.678Z,56.76
2023-05-24T16:06:32.385Z,56.44
2023-05-24T16:08:59.277Z,58.61
2023-05-24T16:11:25.950Z,58.86
2023-05-24T16:13:54.236Z,59.31
2023-05-24T16:16:23.546Z,59.06
2023-05-24T16:18:50.385Z,57.99
2023-05-24T16:21:17.277Z,57.32
2023-05-24T16:23:43.971Z,59.22
2023-05-24T16:26:10.678Z,58.65
2023-05-24T16:28:37.350Z,54.81
2023-05-24T16:31:04.182Z,56.75
2023-05-24T16:33:30.873Z,58.20
2023-05-24T16:35:58.648Z,57.83
2023-05-24T16:38:26.550Z,59.18
2023-05-24T16:40:53.978Z,58.72
2023-05-24T16:43:21.601Z,58.94
2023-05-24T16:45:48.443Z,60.00
2023-05-24T16:48:15.393Z,59.15
2023-05-24T16:50:42.507Z,62.18
2023-05-24T16:53:09.372Z,60.03
2023-05-24T16:55:36.252Z,61.01
2023-05-24T16:58:03.032Z,61.34
2023-05-24T17:00:29.730Z,60.94
2023-05-24T17:02:59.406Z,62.11
2023-05-24T17:05:26.288Z,61.09
2023-05-24T17:07:52.984Z,62.45
2023-05-24T17:10:19.714Z,62.28
2023-05-24T17:12:47.458Z,62.67
2023-05-24T17:15:14.222Z,63.16
2023-05-24T17:17:40.975Z,62.12
2023-05-24T17:20:08.012Z,61.04
2023-05-24T17:22:34.774Z,61.60
2023-05-24T17:25:01.707Z,62.63
2023-05-24T17:27:28.403Z,66.08
2023-05-24T17:29:55.058Z,68.15
2023-05-24T17:32:21.883Z,70.89
2023-05-24T17:34:48.666Z,70.29
2023-05-24T17:37:15.372Z,71.64
2023-05-24T17:39:43.029Z,71.79
2023-05-24T17:42:14.235Z,68.85
2023-05-24T17:44:40.992Z,73.04
2023-05-24T17:47:07.673Z,73.36
2023-05-24T17:49:34.357Z,73.15
2023-05-24T17:52:01.350Z,74.26
2023-05-24T17:54:28.274Z,74.30
2023-05-24T17:56:54.978Z,74.71
2023-05-24T17:59:21.668Z,76.60
2023-05-24T18:01:48.473Z,72.26
2023-05-24T18:04:15.243Z,73.20
2023-05-24T18:06:42.006Z,76.80
2023-05-24T18:09:08.716Z,78.19
2023-05-24T18:11:35.487Z,78.49
2023-05-24T18:14:03.949Z,75.87
2023-05-24T18:16:31.508Z,75.47
2023-05-24T18:18:58.365Z,77.72
2023-05-24T18:21:25.066Z,77.89
2023-05-24T18:23:51.733Z,79.83
2023-05-24T18:26:18.392Z,81.40
2023-05-24T18:28:45.116Z,81.84
2023-05-24T18:31:12.058Z,82.71
2023-05-24T18:33:39.101Z,81.43
2023-05-24T18:36:06.446Z,82.66
2023-05-24T18:38:36.912Z,83.97
2023-05-24T18:41:06.308Z,85.46
2023-05-24T18:43:33.551Z,85.71
2023-05-24T18:46:00.381Z,85.48
2023-05-24T18:48:27.227Z,86.55
2023-05-24T18:50:54.090Z,86.85
2023-05-24T18:53:20.855Z,86.68
2023-05-24T18:55:47.695Z,87.37
2023-05-24T18:58:14.788Z,86.24
2023-05-24T19:00:41.779Z,86.00
2023-05-24T19:03:10.997Z,85.37
2023-05-24T19:05:38.993Z,85.61
2023-05-24T19:08:07.661Z,86.43
2023-05-24T19:10:34.578Z,86.72
2023-05-24T19:13:02.343Z,87.55
2023-05-24T19:15:29.592Z,87.57
2023-05-24T19:17:58.194Z,88.67
2023-05-24T19:20:25.619Z,90.04
2023-05-24T19:22:52.715Z,91.17
2023-05-24T19:25:24.295Z,91.86
2023-05-24T19:30:24.431Z,92.61
2023-05-24T19:32:51.426Z,92.46
2023-05-24T19:35:18.393Z,93.50
2023-05-24T19:37:45.484Z,94.53
2023-05-24T19:40:12.454Z,93.96
2023-05-24T19:42:39.362Z,94.49
2023-05-24T19:45:06.925Z,96.49
2023-05-24T19:47:33.696Z,97.70
2023-05-24T19:50:00.436Z,98.92
2023-05-24T19:52:27.244Z,99.60
2023-05-24T19:54:53.982Z,100.00
2023-05-24T19:57:20.931Z,100.00
2023-05-24T19:59:48.870Z,100.00
2023-05-24T20:02:15.961Z,100.00
2023-05-24T20:04:43.981Z,100.00
2023-05-24T20:07:13.473Z,100.00
2023-05-24T20:09:43.417Z,100.00
2023-05-24T20:12:11.168Z,100.00
2023-05-24T20:14:37.867Z,100.00
2023-05-24T20:17:05.017Z,100.00
2023-05-24T20:19:31.730Z,100.00
2023-05-24T20:21:58.424Z,100.00
2023-05-24T20:24:25.134Z,100.00
2023-05-24T20:26:51.818Z,100.00
2023-05-24T20:29:18.553Z,100.00
2023-05-24T20:31:47.060Z,100.00
2023-05-24T20:34:13.881Z,100.00
2023-05-24T20:36:42.074Z,100.00
2023-05-24T20:39:10.362Z,100.00
2023-05-24T20:41:37.058Z,100.00
2023-05-24T20:44:03.863Z,100.00
2023-05-24T20:46:33.235Z,100.00
2023-05-24T20:49:00.398Z,100.00
2023-05-24T20:51:27.307Z,100.00
2023-05-24T20:53:54.435Z,100.00
2023-05-24T20:56:23.052Z,100.00
2023-05-24T20:58:52.928Z,100.00
2023-05-24T21:01:20.905Z,100.00
2023-05-24T21:03:47.817Z,100.00
2023-05-24T21:06:14.568Z,100.00
2023-05-24T21:08:42.517Z,100.00
2023-05-24T21:11:09.155Z,100.00
2023-05-24T21:13:35.810Z,100.00
2023-05-24T21:16:03.141Z,100.00
2023-05-24T21:18:29.805Z,100.00
2023-05-24T21:20:56.505Z,100.00
2023-05-24T21:23:26.818Z,100.00
2023-05-24T21:25:53.681Z,100.00
2023-05-24T21:28:20.391Z,100.00
2023-05-24T21:30:47.074Z,100.00
2023-05-24T21:33:13.898Z,100.00
2023-05-24T21:35:40.591Z,100.00
2023-05-24T21:38:07.318Z,100.00
2023-05-24T21:40:34.008Z,100.00
2023-05-24T21:43:00.705Z,100.00
2023-05-24T21:45:27.426Z,100.00
2023-05-24T21:47:59.284Z,100.00
2023-05-24T21:50:26.148Z,100.00
2023-05-24T21:52:52.878Z,100.00
2023-05-24T21:55:19.693Z,100.00
2023-05-24T21:57:47.982Z,100.00
2023-05-24T22:00:20.115Z,100.00
2023-05-24T22:02:49.755Z,100.00
2023-05-24T22:05:16.773Z,100.00
2023-05-24T22:07:46.218Z,100.00
2023-05-24T22:10:13.193Z,100.00
2023-05-24T22:12:39.894Z,100.00
2023-05-24T22:15:07.059Z,100.00
2023-05-24T22:17:37.129Z,100.00
2023-05-24T22:20:07.219Z,100.00
2023-05-24T22:22:34.042Z,100.00
2023-05-24T22:25:02.114Z,100.00
2023-05-24T22:27:29.673Z,100.00
2023-05-24T22:29:56.373Z,100.00
2023-05-24T22:32:23.152Z,100.00
2023-05-24T22:34:49.868Z,100.00
2023-05-24T22:37:16.945Z,100.00
2023-05-24T22:39:45.096Z,100.00
2023-05-24T22:42:11.992Z,100.00
2023-05-24T22:44:38.661Z,100.00
2023-05-24T22:47:05.370Z,100.00
2023-05-24T22:49:39.919Z,100.00
2023-05-24T22:52:07.056Z,100.00
2023-05-24T22:54:33.716Z,100.00
2023-05-24T22:57:00.959Z,100.00
2023-05-24T22:59:27.766Z,100.00
2023-05-24T23:01:54.540Z,100.00
2023-05-24T23:04:23.389Z,100.00
2023-05-24T23:06:52.667Z,100.00
2023-05-24T23:09:34.173Z,100.00
2023-05-24T23:12:02.787Z,100.00
2023-05-24T23:14:30.466Z,100.00
2023-05-24T23:17:02.474Z,100.00
2023-05-24T23:19:30.116Z,100.00
2023-05-24T23:21:56.823Z,100.00
2023-05-24T23:24:24.138Z,100.00
2023-05-24T23:26:50.964Z,100.00
2023-05-24T23:29:17.640Z,100.00
2023-05-24T23:31:44.387Z,100.00
2023-05-24T23:34:11.152Z,100.00
2023-05-24T23:36:37.847Z,100.00
2023-05-24T23:39:04.529Z,100.00
2023-05-24T23:41:31.484Z,100.00
2023-05-24T23:43:58.156Z,100.00
2023-05-24T23:46:24.839Z,100.00
2023-05-24T23:48:56.248Z,100.00
2023-05-24T23:51:23.353Z,100.00
2023-05-24T23:53:49.989Z,100.00
2023-05-24T23:56:16.709Z,100.00
2023-05-24T23:58:43.920Z,100.00
